Nearby METAR Reports

 

KPTW - Pottstown, Pennsylvania, USA
Distance from station: NE 6mi, 10km
Updated: 02/25/2018 5:54pm
Overcast
Overcast
 Wind from calm
Wind: Calm
Temperature: 45°F , 7°C
Dew Point: 45°F , 7°C
Humidity: 100%
Barometer: 29.98 inHg , 1015.2 hPa
Clouds: Overcast
Visibility: 7 miles , 11 km
Cloud details: Overcast 500 ft
2018/02/25 22:54 KPTW 252254Z AUTO 00000KT 7SM OVC005 07/07 A2998 RMK AO2 SLP151 T00670067
KMQS - Coatesville, Pennsylvania, USA
Distance from station: SW 18mi, 29km
Updated: 02/25/2018 6:15pm
Mist, Few clouds
Mist, Few clouds
 Wind from calm
Wind: Calm
Temperature: 46°F , 8°C
Dew Point: 46°F , 8°C
Humidity: 100%
Barometer: 29.97 inHg , 1014.9 hPa
Summary: Mist
Clouds: Few Clouds
Visibility: 5 miles , 8 km
Cloud details: Few Clouds 3900 ft
2018/02/25 23:15 KMQS 252315Z AUTO 00000KT 5SM BR FEW039 08/08 A2997 RMK AO2
 
KLOM - Philly Wings F, Pennsylvania, USA
Distance from station: E 19mi, 31km
Updated: 02/25/2018 6:15pm
Mostly Cloudy
Mostly Cloudy
 Wind from calm
Wind: Calm
Temperature: 43°F , 6°C
Dew Point: 43°F , 6°C
Humidity: 100%
Barometer: 29.98 inHg , 1015.2 hPa
Clouds: Mostly Cloudy
Visibility: 10 miles , 16 km
Cloud details: Mostly Cloudy 600 ft
2018/02/25 23:15 KLOM 252315Z AUTO 00000KT 10SM BKN006 06/06 A2998 RMK AO1
KRDG - Reading, Pennsylvania, USA
Distance from station: NW 22mi, 36km
Updated: 02/25/2018 5:54pm
Mist, Overcast
Mist, Overcast
 Wind from calm
Wind: Calm
Temperature: 46°F , 8°C
Dew Point: 46°F , 8°C
Humidity: 100%
Barometer: 29.95 inHg , 1014.2 hPa
Summary: Mist
Clouds: Overcast
Visibility: 4 miles , 6 km
Cloud details: Overcast 800 ft
2018/02/25 22:54 KRDG 252254Z 00000KT 4SM BR OVC008 08/08 A2995 RMK AO2 SLP147 T00830083
 
KUKT - Quakertown Arp, Pennsylvania, USA
Distance from station: NE 22mi, 36km
Updated: 02/25/2018 6:15pm
Overcast
Overcast
 Wind from calm
Wind: Calm
Temperature: 45°F , 7°C
Dew Point: 45°F , 7°C
Humidity: 100%
Barometer: 29.97 inHg , 1014.9 hPa
Clouds: Overcast
Visibility: 9 miles , 14 km
Cloud details: Overcast 300 ft
2018/02/25 23:15 KUKT 252315Z AUTO 00000KT 9SM OVC003 07/07 A2997 RMK A01
KXLL - Allentown Queen, Pennsylvania, USA
Distance from station: NNE 28mi, 46km
Updated: 02/25/2018 6:15pm
Overcast
Overcast
 Wind from calm
Wind: Calm
Temperature: 45°F , 7°C
Dew Point: 45°F , 7°C
Humidity: 100%
Barometer: 29.98 inHg , 1015.2 hPa
Clouds: Overcast
Visibility: 7 miles , 11 km
Cloud details: Overcast 500 ft
2018/02/25 23:15 KXLL 252315Z AUTO 00000KT 7SM OVC005 07/07 A2998 RMK AO2
 
KDYL - Doylestown, Pennsylvania, USA
Distance from station: ENE 29mi, 47km
Updated: 02/25/2018 5:54pm
Mist, Overcast
Mist, Overcast
 Wind from calm
Wind: Calm
Temperature: 45°F , 7°C
Dew Point: 45°F , 7°C
Humidity: 100%
Barometer: 29.96 inHg , 1014.6 hPa
Summary: Mist
Clouds: Overcast
Visibility: 1 1/2 miles , 2.4 km
Cloud details: Overcast 200 ft
2018/02/25 22:54 KDYL 252254Z AUTO 00000KT 1 1/2SM BR OVC002 07/07 A2996 RMK AO2 SLP149 T00670067
KPHL - Philadelphia, Pennsylvania, USA
Distance from station: SE 30mi, 48km
Updated: 02/25/2018 5:54pm
Overcast
Overcast
 Wind from E
Wind: E 7 mph , 11 km/h
Temperature: 46°F , 8°C
Wind Chill: 42°F , 6°C
Dew Point: 45°F , 7°C
Humidity: 93%
Barometer: 29.96 inHg , 1014.6 hPa
Clouds: Overcast
Visibility: 9 miles , 14 km
Cloud details: Overcast 800 ft
2018/02/25 22:54 KPHL 252254Z 10006KT 9SM OVC008 08/07 A2996 RMK AO2 SLP146 T00780067 $
 
KPNE - Philadelphia/Ne, Pennsylvania, USA
Distance from station: E 33mi, 53km
Updated: 02/25/2018 5:54pm
Overcast
Overcast
 Wind from calm
Wind: Calm
Temperature: 48°F , 9°C
Dew Point: 45°F , 7°C
Humidity: 87%
Barometer: 29.98 inHg , 1015.2 hPa
Clouds: Overcast
Visibility: 9 miles , 14 km
Cloud details: Overcast 600 ft
2018/02/25 22:54 KPNE 252254Z 00000KT 9SM OVC006 09/07 A2998 RMK AO2 SLP154 T00890067
KABE - Allentown, Pennsylvania, USA
Distance from station: NNE 34mi, 55km
Updated: 02/25/2018 5:51pm
Overcast
Overcast
 Wind from ESE
Wind: ESE 5 mph , 7 km/h
Temperature: 46°F , 8°C
Wind Chill: 44°F , 7°C
Dew Point: 41°F , 5°C
Humidity: 82%
Barometer: 29.96 inHg , 1014.6 hPa
Clouds: Overcast
Visibility: 10 miles , 16 km
Cloud details: Overcast 800 ft
2018/02/25 22:51 KABE 252251Z 11004KT 10SM OVC008 08/05 A2996 RMK AO2 SLP146 T00780050
 
KILG - Wilmington, Delaware, USA
Distance from station: S 35mi, 56km
Updated: 02/25/2018 5:51pm
Mist, Overcast
Mist, Overcast
 Wind from ESE
Wind: ESE 7 mph , 11 km/h
Temperature: 48°F , 9°C
Wind Chill: 45°F , 7°C
Dew Point: 46°F , 8°C
Humidity: 94%
Barometer: 29.96 inHg , 1014.6 hPa
Summary: Mist
Clouds: Overcast
Visibility: 5 miles , 8 km
Cloud details: Overcast 700 ft
2018/02/25 22:51 KILG 252251Z 11006KT 5SM BR OVC007 09/08 A2996 RMK AO2 SLP145 T00940083 $
KLNS - Lancaster, Pennsylvania, USA
Distance from station: W 36mi, 57km
Updated: 02/25/2018 5:53pm
Overcast
Overcast
 Wind from calm
Wind: Calm
Temperature: 48°F , 9°C
Dew Point: 45°F , 7°C
Humidity: 87%
Barometer: 29.96 inHg , 1014.6 hPa
Clouds: Overcast
Visibility: 7 miles , 11 km
Cloud details: Overcast 700 ft
2018/02/25 22:53 KLNS 252253Z 00000KT 7SM OVC007 09/07 A2996 RMK AO2 SLP147 T00890072
 
KTTN - Trenton, New Jersey, USA
Distance from station: E 44mi, 70km
Updated: 02/25/2018 5:53pm
Mist, Overcast
Mist, Overcast
 Wind from calm
Wind: Calm
Temperature: 45°F , 7°C
Dew Point: 43°F , 6°C
Humidity: 93%
Barometer: 29.96 inHg , 1014.6 hPa
Summary: Mist
Clouds: Overcast
Visibility: 6 miles , 10 km
Cloud details: Overcast 400 ft
2018/02/25 22:53 KTTN 252253Z 00000KT 6SM BR OVC004 07/06 A2996 RMK AO2 SLP141 T00720061
KVAY - Mount Holly, New Jersey, USA
Distance from station: ESE 45mi, 73km
Updated: 02/25/2018 5:54pm
Overcast
Overcast
 Wind from calm
Wind: Calm
Temperature: 46°F , 8°C
Dew Point: 45°F , 7°C
Humidity: 93%
Barometer: 29.97 inHg , 1014.9 hPa
Clouds: Overcast
Visibility: 9 miles , 14 km
Cloud details: Overcast 600 ft
2018/02/25 22:54 KVAY 252254Z AUTO 00000KT 9SM OVC006 08/07 A2997 RMK AO2 SLP149 T00780072
 
KMUI - Muir Aaf/Indiant, Pennsylvania, USA
Distance from station: WNW 52mi, 84km
Updated: 02/25/2018 6:26pm
Overcast
Overcast
 Wind from calm
Wind: Calm
Temperature: 45°F , 7°C
Dew Point: 45°F , 7°C
Humidity: 100%
Barometer: 29.98 inHg , 1015.2 hPa
Clouds: Overcast
Visibility: 7 miles , 11 km
Cloud details: Overcast 400 ft
2018/02/25 23:26 KMUI 252326Z AUTO 00000KT 7SM OVC004 07/07 A2998 RMK AO2 SLP158 $
KAPG - Aberdeen/Phillip, Maryland, USA
Distance from station: SSW 56mi, 91km
Updated: 02/25/2018 5:58pm
Overcast
Overcast
 Wind from SSE
Wind: SSE 3 mph , 6 km/h
Clouds: Overcast
Visibility: 10 miles , 16 km
Cloud details: Overcast 700 ft
2018/02/25 22:58 KAPG 252258Z AUTO 16003KT 10SM OVC007 M A2998 RMK AO2 SLPNO $
 
KWRI - Wrightst/Mcguire, New Jersey, USA
Distance from station: E 56mi, 91km
Updated: 02/25/2018 5:56pm
Mist, Overcast
Mist, Overcast
 Wind from calm
Wind: Calm
Temperature: 45°F , 7°C
Dew Point: 45°F , 7°C
Humidity: 100%
Barometer: 29.94 inHg , 1013.9 hPa
Summary: Mist
Clouds: Overcast
Visibility: 5 miles , 8 km
Cloud details: Overcast 300 ft
2018/02/25 22:56 KWRI 252256Z AUTO 00000KT 5SM BR OVC003 07/07 A2994 RMK AO2 CIG 002 RWY18 SLP139 T00710067
KSMQ - Somerville, New Jersey, USA
Distance from station: ENE 59mi, 96km
Updated: 02/25/2018 5:53pm
Overcast
Overcast
 Wind from calm
Wind: Calm
Temperature: 45°F , 7°C
Dew Point: 43°F , 6°C
Humidity: 93%
Barometer: 29.95 inHg , 1014.2 hPa
Clouds: Overcast
Visibility: 10 miles , 16 km
Cloud details: Overcast 900 ft
2018/02/25 22:53 KSMQ 252253Z AUTO 00000KT 10SM OVC009 07/06 A2995 RMK AO2 SLP145 T00670061
 
KMDT - Middletown, Pennsylvania, USA
Distance from station: W 60mi, 97km
Updated: 02/25/2018 5:56pm
Overcast
Overcast
 Wind from calm
Wind: Calm
Temperature: 46°F , 8°C
Dew Point: 45°F , 7°C
Humidity: 93%
Barometer: 29.96 inHg , 1014.6 hPa
Clouds: Overcast
Visibility: 8 miles , 13 km
Cloud details: Overcast 700 ft
2018/02/25 22:56 KMDT 252256Z 00000KT 8SM OVC007 08/07 A2996 RMK AO2 SLP146 T00830067
KMIV - Millville, New Jersey, USA
Distance from station: SSE 63mi, 101km
Updated: 02/25/2018 5:54pm
Overcast
Overcast
 Wind from NNW
Wind: NNW 5 mph , 7 km/h
Temperature: 50°F , 10°C
Wind Chill: 48°F , 9°C
Dew Point: 48°F , 9°C
Humidity: 94%
Barometer: 29.96 inHg , 1014.6 hPa
Clouds: Overcast
Visibility: 10 miles , 16 km
Cloud details: Overcast 700 ft
2018/02/25 22:54 KMIV 252254Z AUTO 34004KT 10SM OVC007 10/09 A2996 RMK AO2 CIG 006V011 SLP144 T01000089